Irving South's Hourly Summary for Wednesday, April 19, 2017
Hour Temp
(f)
RH
(%)
Solar Rad.
(MJ/m2)
Rainfall
(in)
Wind
(mph)
4/19/2017 12:00 AM 66 79 0 0 0.01
4/19/2017 1:00 AM 65 86 0 0 0
4/19/2017 2:00 AM 64 89 0 0 0.01
4/19/2017 3:00 AM 64 90 0 0 0
4/19/2017 4:00 AM 64 91 0 0 0.34
4/19/2017 5:00 AM 64 91 0 0 0.52
4/19/2017 6:00 AM 65 88 0 0 0.68
4/19/2017 7:00 AM 65 84 0 0 1.07
4/19/2017 8:00 AM 65 83 0.13 0 0.83
4/19/2017 9:00 AM 67 77 0.4 0 1.78
4/19/2017 10:00 AM 69 70 0.95 0 2.82
4/19/2017 11:00 AM 71 63 0.96 0 3.24
4/19/2017 12:00 PM 73 57 1.7 0 3.15
4/19/2017 1:00 PM 74 56 2.02 0 4.17
4/19/2017 2:00 PM 77 52 2.47 0 5.08
4/19/2017 3:00 PM 79 46 3.27 0 6.44
4/19/2017 4:00 PM 81 45 2.46 0 5.1
4/19/2017 5:00 PM 81 44 1.55 0 5.13
4/19/2017 6:00 PM 81 46 0.91 0 4.08
4/19/2017 7:00 PM 81 48 0.7 0 3.42
4/19/2017 8:00 PM 78 51 0.16 0 1.48
4/19/2017 9:00 PM 75 59 0 0 0.53
4/19/2017 10:00 PM 74 63 0 0 0.36
4/19/2017 11:00 PM 73 67 0 0 1.3
Data Summary 71 67 17.68 0.00 2.15